Weather at Base Aérea de Colmenar Viejo

Public forecast

Using degrees Celsius for public forecast. Weather courtesy of forecast.io.

Closest aviation weather report (METAR) to Base Aérea de Colmenar Viejo

Closest report is Adolfo Suárez Madrid–Barajas Airport, 16.3 nm (30.2 km) SE. Retrieved 2021/04/14 01:00 UTC (32 minutes ago):

LEMD 140100Z 35004KT 9999 FEW042 10/08 Q1019 NOSIG

Aviation forecast (TAF) for Base Aérea de Colmenar Viejo

Retrieved 2021-04-14 00:00 UTC (2 hours ago):

TAF LECV 132300Z 1400/1424 02007KT 9999 FEW012 BKN040 TX17/1415Z TN07/1406Z PROB40 1404/1407 BKN010 BECMG 1406/1407 09008KT BECMG 1412/1413 14008KT PROB40 TEMPO 1413/1418 FEW025TCU PROB30 TEMPO 1416/1420 SHRA SCT025TCU BECMG 1419/1420 07007KT